sensor_id;sensor_type;location;lat;lon;timestamp;pressure;altitude;pressure_sealevel;temperature;humidity
45327;BME280;31062;49.678;24.560;2023-04-09T00:02:20;98832.22;;;4.12;71.70
45327;BME280;31062;49.678;24.560;2023-04-09T00:05:06;98808.22;;;3.94;71.90
45327;BME280;31062;49.678;24.560;2023-04-09T00:07:52;98830.78;;;3.87;72.20
45327;BME280;31062;49.678;24.560;2023-04-09T00:10:38;98830.28;;;4.07;72.59
45327;BME280;31062;49.678;24.560;2023-04-09T00:13:24;98660.13;;;2.89;72.51
45327;BME280;31062;49.678;24.560;2023-04-09T00:16:23;98809.59;;;3.87;72.63
45327;BME280;31062;49.678;24.560;2023-04-09T00:19:09;98828.13;;;4.00;73.32
45327;BME280;31062;49.678;24.560;2023-04-09T00:21:55;98830.66;;;3.98;73.15
45327;BME280;31062;49.678;24.560;2023-04-09T00:24:41;98823.28;;;3.87;73.74
45327;BME280;31062;49.678;24.560;2023-04-09T00:27:26;98860.59;;;3.96;73.61
45327;BME280;31062;49.678;24.560;2023-04-09T00:30:11;98612.19;;;2.53;73.67
45327;BME280;31062;49.678;24.560;2023-04-09T00:32:57;98786.84;;;3.68;73.51
45327;BME280;31062;49.678;24.560;2023-04-09T00:35:42;98811.22;;;3.96;73.94
45327;BME280;31062;49.678;24.560;2023-04-09T00:38:28;98839.09;;;4.00;73.52
45327;BME280;31062;49.678;24.560;2023-04-09T00:41:14;98647.25;;;2.84;73.63
45327;BME280;31062;49.678;24.560;2023-04-09T00:43:59;98826.28;;;4.08;73.67
45327;BME280;31062;49.678;24.560;2023-04-09T00:46:44;98623.22;;;2.71;73.70
45327;BME280;31062;49.678;24.560;2023-04-09T00:49:30;98826.78;;;4.06;73.61
45327;BME280;31062;49.678;24.560;2023-04-09T00:52:15;98775.16;;;3.43;72.72
45327;BME280;31062;49.678;24.560;2023-04-09T00:55:03;98829.88;;;3.79;72.52
45327;BME280;31062;49.678;24.560;2023-04-09T00:57:49;98829.25;;;3.67;73.03
45327;BME280;31062;49.678;24.560;2023-04-09T01:00:34;98819.19;;;3.51;72.72
45327;BME280;31062;49.678;24.560;2023-04-09T01:03:20;98829.97;;;3.43;73.22
45327;BME280;31062;49.678;24.560;2023-04-09T01:06:30;98771.63;;;2.94;73.14
45327;BME280;31062;49.678;24.560;2023-04-09T01:09:36;98791.25;;;2.98;73.90
45327;BME280;31062;49.678;24.560;2023-04-09T01:15:22;98617.72;;;1.41;74.62
45327;BME280;31062;49.678;24.560;2023-04-09T01:18:17;98837.75;;;2.68;75.23
45327;BME280;31062;49.678;24.560;2023-04-09T01:21:15;98823.53;;;2.75;75.48
45327;BME280;31062;49.678;24.560;2023-04-09T01:27:08;98825.59;;;2.64;75.99
45327;BME280;31062;49.678;24.560;2023-04-09T01:30:15;98832.28;;;2.68;76.21
45327;BME280;31062;49.678;24.560;2023-04-09T01:33:03;98724.25;;;1.98;76.25
45327;BME280;31062;49.678;24.560;2023-04-09T01:35:51;98835.72;;;2.74;76.37
45327;BME280;31062;49.678;24.560;2023-04-09T01:38:40;98635.31;;;1.45;76.46
45327;BME280;31062;49.678;24.560;2023-04-09T01:41:26;98819.31;;;2.74;76.10
45327;BME280;31062;49.678;24.560;2023-04-09T01:44:12;98782.78;;;2.31;76.33
45327;BME280;31062;49.678;24.560;2023-04-09T01:46:59;98730.75;;;1.95;75.58
45327;BME280;31062;49.678;24.560;2023-04-09T01:49:44;98790.81;;;2.59;75.83
45327;BME280;31062;49.678;24.560;2023-04-09T01:52:30;98613.50;;;1.40;75.40
45327;BME280;31062;49.678;24.560;2023-04-09T01:55:16;98615.69;;;1.47;75.67
45327;BME280;31062;49.678;24.560;2023-04-09T01:58:01;98794.44;;;2.72;75.54
45327;BME280;31062;49.678;24.560;2023-04-09T02:00:47;98774.75;;;2.44;75.62
45327;BME280;31062;49.678;24.560;2023-04-09T02:03:37;98772.81;;;2.69;75.09
45327;BME280;31062;49.678;24.560;2023-04-09T02:06:37;98709.44;;;2.24;74.88
45327;BME280;31062;49.678;24.560;2023-04-09T02:09:27;98842.78;;;3.00;74.91
45327;BME280;31062;49.678;24.560;2023-04-09T02:12:17;98671.13;;;1.88;74.61
45327;BME280;31062;49.678;24.560;2023-04-09T02:15:04;98842.75;;;3.05;74.88
45327;BME280;31062;49.678;24.560;2023-04-09T02:17:51;98836.31;;;3.03;74.48
45327;BME280;31062;49.678;24.560;2023-04-09T02:20:37;98856.03;;;2.96;74.67
45327;BME280;31062;49.678;24.560;2023-04-09T02:23:23;98790.53;;;2.62;74.30
45327;BME280;31062;49.678;24.560;2023-04-09T02:26:09;98839.38;;;2.88;74.39
45327;BME280;31062;49.678;24.560;2023-04-09T02:28:54;98837.16;;;2.86;74.51
45327;BME280;31062;49.678;24.560;2023-04-09T02:31:39;98825.72;;;2.82;74.81
45327;BME280;31062;49.678;24.560;2023-04-09T02:34:25;98654.59;;;1.70;74.85
45327;BME280;31062;49.678;24.560;2023-04-09T02:37:11;98628.59;;;1.52;74.73
45327;BME280;31062;49.678;24.560;2023-04-09T02:39:56;98800.72;;;2.67;74.40
45327;BME280;31062;49.678;24.560;2023-04-09T02:42:42;98751.44;;;2.32;75.13
45327;BME280;31062;49.678;24.560;2023-04-09T02:45:27;98786.63;;;2.52;74.70
45327;BME280;31062;49.678;24.560;2023-04-09T02:48:13;98817.84;;;2.73;75.21
45327;BME280;31062;49.678;24.560;2023-04-09T02:51:00;98817.34;;;2.69;75.13
45327;BME280;31062;49.678;24.560;2023-04-09T02:53:48;98606.34;;;1.26;75.16
45327;BME280;31062;49.678;24.560;2023-04-09T02:56:34;98726.00;;;2.01;75.14
45327;BME280;31062;49.678;24.560;2023-04-09T02:59:19;98601.19;;;1.16;75.18
45327;BME280;31062;49.678;24.560;2023-04-09T03:02:05;98803.63;;;2.34;75.27
45327;BME280;31062;49.678;24.560;2023-04-09T03:04:50;98629.47;;;1.25;75.32
45327;BME280;31062;49.678;24.560;2023-04-09T03:07:37;98770.13;;;2.22;75.43
45327;BME280;31062;49.678;24.560;2023-04-09T03:10:22;98848.25;;;2.64;75.50
45327;BME280;31062;49.678;24.560;2023-04-09T03:13:08;98694.56;;;1.78;75.10
45327;BME280;31062;49.678;24.560;2023-04-09T03:15:53;98834.72;;;2.77;75.19
45327;BME280;31062;49.678;24.560;2023-04-09T03:18:39;98802.97;;;2.63;75.34
45327;BME280;31062;49.678;24.560;2023-04-09T03:21:24;98832.41;;;2.87;75.31
45327;BME280;31062;49.678;24.560;2023-04-09T03:24:11;98612.25;;;1.41;75.04
45327;BME280;31062;49.678;24.560;2023-04-09T03:26:58;98723.94;;;2.13;74.87
45327;BME280;31062;49.678;24.560;2023-04-09T03:29:43;98839.13;;;2.92;74.76
45327;BME280;31062;49.678;24.560;2023-04-09T03:32:30;98805.06;;;2.46;75.18
45327;BME280;31062;49.678;24.560;2023-04-09T03:35:16;98689.03;;;1.89;74.87
45327;BME280;31062;49.678;24.560;2023-04-09T03:38:02;98845.31;;;2.92;74.95
45327;BME280;31062;49.678;24.560;2023-04-09T03:40:49;98835.41;;;2.89;74.90
45327;BME280;31062;49.678;24.560;2023-04-09T03:43:34;98813.44;;;2.59;74.46
45327;BME280;31062;49.678;24.560;2023-04-09T03:46:21;98642.50;;;1.54;74.28
45327;BME280;31062;49.678;24.560;2023-04-09T03:49:07;98749.22;;;2.25;74.09
45327;BME280;31062;49.678;24.560;2023-04-09T03:51:59;98815.38;;;2.70;74.00
45327;BME280;31062;49.678;24.560;2023-04-09T03:54:52;98843.19;;;2.79;74.31
45327;BME280;31062;49.678;24.560;2023-04-09T03:57:41;98641.81;;;1.42;74.19
45327;BME280;31062;49.678;24.560;2023-04-09T04:00:31;98811.34;;;2.35;74.63
45327;BME280;31062;49.678;24.560;2023-04-09T04:03:45;98745.81;;;2.13;74.46
45327;BME280;31062;49.678;24.560;2023-04-09T04:06:39;98807.00;;;2.51;74.85
45327;BME280;31062;49.678;24.560;2023-04-09T04:09:44;98665.09;;;1.54;74.61
45327;BME280;31062;49.678;24.560;2023-04-09T04:12:34;98648.53;;;1.36;74.84
45327;BME280;31062;49.678;24.560;2023-04-09T04:15:27;98717.38;;;1.86;75.24
45327;BME280;31062;49.678;24.560;2023-04-09T04:18:14;98810.47;;;2.57;75.20
45327;BME280;31062;49.678;24.560;2023-04-09T04:21:14;98810.47;;;2.57;75.41
45327;BME280;31062;49.678;24.560;2023-04-09T04:24:04;98871.56;;;2.76;75.46
45327;BME280;31062;49.678;24.560;2023-04-09T04:26:50;98654.94;;;1.44;75.65
45327;BME280;31062;49.678;24.560;2023-04-09T04:29:37;98818.47;;;2.55;75.71
45327;BME280;31062;49.678;24.560;2023-04-09T04:32:36;98707.44;;;1.83;75.54
45327;BME280;31062;49.678;24.560;2023-04-09T04:35:26;98714.63;;;1.86;75.86
45327;BME280;31062;49.678;24.560;2023-04-09T04:38:15;98657.66;;;1.49;75.89
45327;BME280;31062;49.678;24.560;2023-04-09T04:41:01;98908.84;;;2.91;75.92
45327;BME280;31062;49.678;24.560;2023-04-09T04:43:48;98677.25;;;1.59;75.90
45327;BME280;31062;49.678;24.560;2023-04-09T04:46:39;98866.03;;;2.87;76.23
45327;BME280;31062;49.678;24.560;2023-04-09T04:49:25;98889.38;;;2.94;76.13
45327;BME280;31062;49.678;24.560;2023-04-09T04:52:10;98715.88;;;1.85;76.25
45327;BME280;31062;49.678;24.560;2023-04-09T04:55:00;98869.00;;;2.90;76.25
45327;BME280;31062;49.678;24.560;2023-04-09T04:57:46;98718.09;;;1.87;76.08
45327;BME280;31062;49.678;24.560;2023-04-09T05:00:31;98716.44;;;1.78;76.57
45327;BME280;31062;49.678;24.560;2023-04-09T05:03:20;98661.31;;;1.63;76.56
45327;BME280;31062;49.678;24.560;2023-04-09T05:06:31;98879.84;;;3.06;76.46
45327;BME280;31062;49.678;24.560;2023-04-09T05:09:19;98771.28;;;2.38;76.73
45327;BME280;31062;49.678;24.560;2023-04-09T05:12:23;98887.81;;;3.10;76.74
45327;BME280;31062;49.678;24.560;2023-04-09T05:15:10;98815.00;;;2.49;76.78
45327;BME280;31062;49.678;24.560;2023-04-09T05:17:55;98858.44;;;3.05;76.76
45327;BME280;31062;49.678;24.560;2023-04-09T05:20:42;98666.25;;;1.70;77.01
45327;BME280;31062;49.678;24.560;2023-04-09T05:23:28;98779.66;;;2.51;77.52
45327;BME280;31062;49.678;24.560;2023-04-09T05:26:13;98875.53;;;3.16;77.72
45327;BME280;31062;49.678;24.560;2023-04-09T05:29:07;98861.41;;;3.07;77.24
45327;BME280;31062;49.678;24.560;2023-04-09T05:31:54;98751.19;;;2.30;76.93
45327;BME280;31062;49.678;24.560;2023-04-09T05:34:49;98686.56;;;1.80;76.96
45327;BME280;31062;49.678;24.560;2023-04-09T05:37:34;98898.00;;;3.09;77.51
45327;BME280;31062;49.678;24.560;2023-04-09T05:40:20;98893.50;;;3.12;77.98
45327;BME280;31062;49.678;24.560;2023-04-09T05:43:07;98849.22;;;2.72;78.16
45327;BME280;31062;49.678;24.560;2023-04-09T05:45:57;98934.91;;;3.03;78.49
45327;BME280;31062;49.678;24.560;2023-04-09T05:48:43;98889.84;;;3.04;78.75
45327;BME280;31062;49.678;24.560;2023-04-09T05:51:29;98890.44;;;2.85;79.04
45327;BME280;31062;49.678;24.560;2023-04-09T05:54:18;98880.03;;;3.14;78.99
45327;BME280;31062;49.678;24.560;2023-04-09T05:57:04;98904.72;;;3.44;79.02
45327;BME280;31062;49.678;24.560;2023-04-09T05:59:53;98833.50;;;3.08;79.18
45327;BME280;31062;49.678;24.560;2023-04-09T06:02:39;98908.59;;;3.84;79.35
45327;BME280;31062;49.678;24.560;2023-04-09T06:05:25;98947.00;;;4.08;79.29
45327;BME280;31062;49.678;24.560;2023-04-09T06:08:11;98914.31;;;4.34;78.47
45327;BME280;31062;49.678;24.560;2023-04-09T06:10:57;98870.88;;;4.14;77.69
45327;BME280;31062;49.678;24.560;2023-04-09T06:13:43;98871.34;;;4.56;77.01
45327;BME280;31062;49.678;24.560;2023-04-09T06:16:28;98888.84;;;4.90;76.89
45327;BME280;31062;49.678;24.560;2023-04-09T06:19:15;98922.66;;;5.36;75.83
45327;BME280;31062;49.678;24.560;2023-04-09T06:22:09;98836.88;;;4.92;74.51
45327;BME280;31062;49.678;24.560;2023-04-09T06:24:55;98918.06;;;5.57;73.70
45327;BME280;31062;49.678;24.560;2023-04-09T06:27:41;98730.41;;;4.34;74.02
45327;BME280;31062;49.678;24.560;2023-04-09T06:30:26;98951.97;;;5.78;73.42
45327;BME280;31062;49.678;24.560;2023-04-09T06:33:13;98918.16;;;5.96;73.85
45327;BME280;31062;49.678;24.560;2023-04-09T06:35:58;98882.72;;;5.61;72.95
45327;BME280;31062;49.678;24.560;2023-04-09T06:38:44;98883.22;;;5.91;72.29
45327;BME280;31062;49.678;24.560;2023-04-09T06:41:30;98945.72;;;6.23;72.89
45327;BME280;31062;49.678;24.560;2023-04-09T06:44:16;98916.38;;;6.25;72.49
45327;BME280;31062;49.678;24.560;2023-04-09T06:47:02;98909.91;;;6.09;72.81
45327;BME280;31062;49.678;24.560;2023-04-09T06:49:47;98923.47;;;6.34;71.38
45327;BME280;31062;49.678;24.560;2023-04-09T06:52:33;98934.19;;;6.37;72.32
45327;BME280;31062;49.678;24.560;2023-04-09T06:55:18;98957.25;;;6.34;72.21
45327;BME280;31062;49.678;24.560;2023-04-09T06:58:03;98922.72;;;6.33;73.03
45327;BME280;31062;49.678;24.560;2023-04-09T07:00:50;98932.88;;;6.51;72.71
45327;BME280;31062;49.678;24.560;2023-04-09T07:03:36;98925.59;;;6.54;72.71
45327;BME280;31062;49.678;24.560;2023-04-09T07:06:21;98896.25;;;6.30;72.67
45327;BME280;31062;49.678;24.560;2023-04-09T07:09:07;98870.91;;;6.45;73.14
45327;BME280;31062;49.678;24.560;2023-04-09T07:11:52;98844.13;;;6.32;73.08
45327;BME280;31062;49.678;24.560;2023-04-09T07:14:38;98733.78;;;5.70;72.75
45327;BME280;31062;49.678;24.560;2023-04-09T07:17:23;98865.16;;;6.69;72.45
45327;BME280;31062;49.678;24.560;2023-04-09T07:20:09;98930.31;;;7.14;72.94
45327;BME280;31062;49.678;24.560;2023-04-09T07:22:55;98735.06;;;5.95;71.77
45327;BME280;31062;49.678;24.560;2023-04-09T07:25:40;98893.81;;;7.21;72.86
45327;BME280;31062;49.678;24.560;2023-04-09T07:28:26;98773.47;;;6.48;72.32
45327;BME280;31062;49.678;24.560;2023-04-09T07:31:13;98778.94;;;6.61;71.93
45327;BME280;31062;49.678;24.560;2023-04-09T07:33:58;98897.25;;;7.55;72.19
45327;BME280;31062;49.678;24.560;2023-04-09T07:36:44;98885.19;;;7.66;72.72
45327;BME280;31062;49.678;24.560;2023-04-09T07:39:30;98858.25;;;7.59;72.15
45327;BME280;31062;49.678;24.560;2023-04-09T07:42:15;98813.91;;;7.57;72.49
45327;BME280;31062;49.678;24.560;2023-04-09T07:45:01;98932.75;;;8.65;71.58
45327;BME280;31062;49.678;24.560;2023-04-09T07:47:47;98933.41;;;8.86;71.99
45327;BME280;31062;49.678;24.560;2023-04-09T07:51:05;98939.75;;;9.09;70.66
45327;BME280;31062;49.678;24.560;2023-04-09T07:53:51;98930.91;;;9.18;70.09
45327;BME280;31062;49.678;24.560;2023-04-09T07:56:37;98938.31;;;9.31;69.03
45327;BME280;31062;49.678;24.560;2023-04-09T07:59:23;98936.69;;;9.43;68.55
45327;BME280;31062;49.678;24.560;2023-04-09T08:02:09;98879.84;;;9.19;68.56
45327;BME280;31062;49.678;24.560;2023-04-09T08:04:59;98934.69;;;9.59;67.94
45327;BME280;31062;49.678;24.560;2023-04-09T08:07:45;98932.84;;;9.69;68.03
45327;BME280;31062;49.678;24.560;2023-04-09T08:10:31;98935.06;;;9.78;67.82
45327;BME280;31062;49.678;24.560;2023-04-09T08:13:22;98942.28;;;9.81;66.28
45327;BME280;31062;49.678;24.560;2023-04-09T08:16:11;98914.94;;;9.85;65.34
45327;BME280;31062;49.678;24.560;2023-04-09T08:18:56;98963.50;;;9.94;65.00
45327;BME280;31062;49.678;24.560;2023-04-09T08:21:42;98944.31;;;9.88;65.52
45327;BME280;31062;49.678;24.560;2023-04-09T08:24:42;98935.81;;;10.16;66.01
45327;BME280;31062;49.678;24.560;2023-04-09T08:27:47;98909.16;;;10.13;64.56
45327;BME280;31062;49.678;24.560;2023-04-09T08:30:33;98930.22;;;10.32;63.80
45327;BME280;31062;49.678;24.560;2023-04-09T08:33:18;98719.41;;;9.04;63.97
45327;BME280;31062;49.678;24.560;2023-04-09T08:36:07;98757.94;;;9.32;63.49
45327;BME280;31062;49.678;24.560;2023-04-09T08:38:53;98933.88;;;10.57;63.30
45327;BME280;31062;49.678;24.560;2023-04-09T08:41:41;98927.22;;;10.60;62.47
45327;BME280;31062;49.678;24.560;2023-04-09T08:44:30;98925.34;;;10.55;62.92
45327;BME280;31062;49.678;24.560;2023-04-09T08:47:18;98923.91;;;10.54;62.54
45327;BME280;31062;49.678;24.560;2023-04-09T08:50:05;98887.38;;;10.25;61.57
45327;BME280;31062;49.678;24.560;2023-04-09T08:52:50;98929.88;;;10.35;62.30
45327;BME280;31062;49.678;24.560;2023-04-09T08:55:37;98896.63;;;10.28;61.05
45327;BME280;31062;49.678;24.560;2023-04-09T08:58:23;98926.53;;;10.37;61.86
45327;BME280;31062;49.678;24.560;2023-04-09T09:01:17;98924.13;;;10.41;57.28
45327;BME280;31062;49.678;24.560;2023-04-09T09:04:06;98947.59;;;10.40;58.45
45327;BME280;31062;49.678;24.560;2023-04-09T09:06:52;98916.13;;;10.60;64.33
45327;BME280;31062;49.678;24.560;2023-04-09T09:09:57;98888.56;;;10.62;62.55
45327;BME280;31062;49.678;24.560;2023-04-09T09:12:43;98920.72;;;11.05;59.21
45327;BME280;31062;49.678;24.560;2023-04-09T09:15:29;98894.91;;;10.95;56.43
45327;BME280;31062;49.678;24.560;2023-04-09T09:18:16;98867.97;;;10.80;57.79
45327;BME280;31062;49.678;24.560;2023-04-09T09:21:16;98917.66;;;11.26;58.23
45327;BME280;31062;49.678;24.560;2023-04-09T09:24:15;98883.38;;;11.06;56.90
45327;BME280;31062;49.678;24.560;2023-04-09T09:27:01;98916.84;;;11.33;56.30
45327;BME280;31062;49.678;24.560;2023-04-09T09:29:47;98914.59;;;11.39;57.49
45327;BME280;31062;49.678;24.560;2023-04-09T09:32:33;98926.28;;;11.37;55.92
45327;BME280;31062;49.678;24.560;2023-04-09T09:35:20;98912.00;;;11.41;55.99
45327;BME280;31062;49.678;24.560;2023-04-09T09:38:06;98880.25;;;11.27;53.71
45327;BME280;31062;49.678;24.560;2023-04-09T09:40:53;98888.75;;;11.29;55.29
45327;BME280;31062;49.678;24.560;2023-04-09T09:43:39;98909.09;;;11.56;53.83
45327;BME280;31062;49.678;24.560;2023-04-09T09:46:27;98845.16;;;11.22;52.50
45327;BME280;31062;49.678;24.560;2023-04-09T09:49:15;98907.75;;;11.65;51.00
45327;BME280;31062;49.678;24.560;2023-04-09T09:52:01;98910.13;;;11.68;49.13
45327;BME280;31062;49.678;24.560;2023-04-09T09:54:59;98876.75;;;11.51;48.18
45327;BME280;31062;49.678;24.560;2023-04-09T09:57:49;98878.41;;;11.54;50.21
45327;BME280;31062;49.678;24.560;2023-04-09T10:00:39;98865.66;;;11.51;49.81
45327;BME280;31062;49.678;24.560;2023-04-09T10:03:26;98894.00;;;11.74;49.44
45327;BME280;31062;49.678;24.560;2023-04-09T10:06:13;98887.31;;;11.77;50.05
45327;BME280;31062;49.678;24.560;2023-04-09T10:09:03;98809.34;;;11.09;49.29
45327;BME280;31062;49.678;24.560;2023-04-09T10:11:51;98861.09;;;11.63;49.92
45327;BME280;31062;49.678;24.560;2023-04-09T10:14:39;98892.34;;;11.96;50.75
45327;BME280;31062;49.678;24.560;2023-04-09T10:17:27;98878.44;;;11.96;51.31
45327;BME280;31062;49.678;24.560;2023-04-09T10:20:26;98867.91;;;11.95;49.29
45327;BME280;31062;49.678;24.560;2023-04-09T10:23:21;98880.31;;;12.11;50.66
45327;BME280;31062;49.678;24.560;2023-04-09T10:26:09;98898.16;;;12.08;48.74
45327;BME280;31062;49.678;24.560;2023-04-09T10:29:09;98884.25;;;12.08;49.63
45327;BME280;31062;49.678;24.560;2023-04-09T10:32:05;98885.06;;;12.01;48.79
45327;BME280;31062;49.678;24.560;2023-04-09T10:34:56;98867.56;;;11.91;49.38
45327;BME280;31062;49.678;24.560;2023-04-09T10:37:47;98784.09;;;11.22;49.51
45327;BME280;31062;49.678;24.560;2023-04-09T10:40:55;98890.13;;;11.95;50.58
45327;BME280;31062;49.678;24.560;2023-04-09T10:43:42;98901.56;;;11.99;50.11
45327;BME280;31062;49.678;24.560;2023-04-09T10:51:18;98878.22;;;12.02;48.95
45327;BME280;31062;49.678;24.560;2023-04-09T10:54:45;98883.75;;;12.02;49.23
45327;BME280;31062;49.678;24.560;2023-04-09T10:58:11;98884.81;;;12.06;49.64
45327;BME280;31062;49.678;24.560;2023-04-09T11:01:09;98871.66;;;12.07;49.21
45327;BME280;31062;49.678;24.560;2023-04-09T11:04:19;98855.63;;;11.98;49.56
45327;BME280;31062;49.678;24.560;2023-04-09T11:07:07;98869.06;;;12.09;48.66
45327;BME280;31062;49.678;24.560;2023-04-09T11:09:53;98876.56;;;12.16;49.09
45327;BME280;31062;49.678;24.560;2023-04-09T11:12:39;98838.00;;;12.03;48.34
45327;BME280;31062;49.678;24.560;2023-04-09T11:15:31;98864.81;;;12.25;48.72
45327;BME280;31062;49.678;24.560;2023-04-09T11:18:26;98868.97;;;12.34;48.02
45327;BME280;31062;49.678;24.560;2023-04-09T11:21:12;98865.63;;;12.35;48.35
45327;BME280;31062;49.678;24.560;2023-04-09T11:23:59;98871.84;;;12.43;47.88
45327;BME280;31062;49.678;24.560;2023-04-09T11:26:47;98843.88;;;12.24;47.80
45327;BME280;31062;49.678;24.560;2023-04-09T11:29:34;98867.75;;;12.44;49.35
45327;BME280;31062;49.678;24.560;2023-04-09T11:32:20;98862.34;;;12.46;48.39
45327;BME280;31062;49.678;24.560;2023-04-09T11:35:14;98850.09;;;12.32;49.01
45327;BME280;31062;49.678;24.560;2023-04-09T11:38:00;98869.53;;;12.49;48.14
45327;BME280;31062;49.678;24.560;2023-04-09T11:40:47;98684.13;;;11.29;49.12
45327;BME280;31062;49.678;24.560;2023-04-09T11:43:35;98834.47;;;12.37;50.09
45327;BME280;31062;49.678;24.560;2023-04-09T11:46:21;98866.41;;;12.62;49.04
45327;BME280;31062;49.678;24.560;2023-04-09T11:49:10;98788.09;;;12.22;50.47
45327;BME280;31062;49.678;24.560;2023-04-09T11:51:58;98819.31;;;12.47;51.18
45327;BME280;31062;49.678;24.560;2023-04-09T11:54:52;98862.13;;;12.79;50.21
45327;BME280;31062;49.678;24.560;2023-04-09T11:57:43;98892.16;;;12.80;50.34
45327;BME280;31062;49.678;24.560;2023-04-09T12:00:32;98854.25;;;12.85;49.57
45327;BME280;31062;49.678;24.560;2023-04-09T12:03:29;98871.44;;;12.91;48.79
45327;BME280;31062;49.678;24.560;2023-04-09T12:06:20;98685.50;;;11.72;49.51
45327;BME280;31062;49.678;24.560;2023-04-09T12:09:10;98823.56;;;12.75;49.74
45327;BME280;31062;49.678;24.560;2023-04-09T12:11:59;98860.03;;;12.96;49.66
45327;BME280;31062;49.678;24.560;2023-04-09T12:14:46;98850.84;;;13.03;48.82
45327;BME280;31062;49.678;24.560;2023-04-09T12:17:32;98828.50;;;12.94;48.53
45327;BME280;31062;49.678;24.560;2023-04-09T12:20:35;98844.94;;;13.17;50.17
45327;BME280;31062;49.678;24.560;2023-04-09T12:23:24;98841.56;;;13.18;48.69
45327;BME280;31062;49.678;24.560;2023-04-09T12:26:11;98852.31;;;13.31;51.62
45327;BME280;31062;49.678;24.560;2023-04-09T12:28:57;98818.28;;;13.23;49.08
45327;BME280;31062;49.678;24.560;2023-04-09T12:31:43;98840.78;;;13.44;48.53
45327;BME280;31062;49.678;24.560;2023-04-09T12:34:31;98720.63;;;12.65;47.62
45327;BME280;31062;49.678;24.560;2023-04-09T12:37:17;98820.53;;;13.34;46.30
45327;BME280;31062;49.678;24.560;2023-04-09T12:40:03;98823.91;;;13.33;46.42
45327;BME280;31062;49.678;24.560;2023-04-09T12:42:50;98809.19;;;13.23;47.92
45327;BME280;31062;49.678;24.560;2023-04-09T12:45:36;98815.03;;;13.17;47.27
45327;BME280;31062;49.678;24.560;2023-04-09T12:48:22;98820.22;;;13.30;48.05
45327;BME280;31062;49.678;24.560;2023-04-09T12:51:14;98824.63;;;13.33;46.51
45327;BME280;31062;49.678;24.560;2023-04-09T12:54:01;98799.50;;;13.14;46.25
45327;BME280;31062;49.678;24.560;2023-04-09T12:56:48;98816.97;;;13.24;46.19
45327;BME280;31062;49.678;24.560;2023-04-09T12:59:34;98813.72;;;13.18;46.61
45327;BME280;31062;49.678;24.560;2023-04-09T13:02:20;98804.06;;;13.19;46.80
45327;BME280;31062;49.678;24.560;2023-04-09T13:05:06;98798.38;;;13.27;46.92
45327;BME280;31062;49.678;24.560;2023-04-09T13:07:52;98687.78;;;12.54;47.31
45327;BME280;31062;49.678;24.560;2023-04-09T13:10:38;98810.84;;;13.35;46.96
45327;BME280;31062;49.678;24.560;2023-04-09T13:13:25;98811.16;;;13.39;46.45
45327;BME280;31062;49.678;24.560;2023-04-09T13:16:11;98805.72;;;13.32;46.72
45327;BME280;31062;49.678;24.560;2023-04-09T13:18:56;98826.69;;;13.42;47.60
45327;BME280;31062;49.678;24.560;2023-04-09T13:21:42;98790.66;;;13.44;47.74
45327;BME280;31062;49.678;24.560;2023-04-09T13:24:27;98787.56;;;13.40;46.90
45327;BME280;31062;49.678;24.560;2023-04-09T13:27:13;98791.38;;;13.45;47.94
45327;BME280;31062;49.678;24.560;2023-04-09T13:30:01;98788.63;;;13.55;48.69
45327;BME280;31062;49.678;24.560;2023-04-09T13:32:47;98803.56;;;13.49;46.38
45327;BME280;31062;49.678;24.560;2023-04-09T13:35:32;98787.47;;;13.58;46.59
45327;BME280;31062;49.678;24.560;2023-04-09T13:38:18;98787.47;;;13.58;46.08
45327;BME280;31062;49.678;24.560;2023-04-09T13:41:04;98780.41;;;13.57;46.17
45327;BME280;31062;49.678;24.560;2023-04-09T13:43:50;98780.41;;;13.57;45.77
45327;BME280;31062;49.678;24.560;2023-04-09T13:46:36;98698.19;;;13.00;46.15
45327;BME280;31062;49.678;24.560;2023-04-09T13:49:22;98783.34;;;13.59;45.73
45327;BME280;31062;49.678;24.560;2023-04-09T13:52:08;98784.53;;;13.56;45.43
45327;BME280;31062;49.678;24.560;2023-04-09T13:54:55;98743.72;;;13.31;45.58
45327;BME280;31062;49.678;24.560;2023-04-09T13:57:41;98794.19;;;13.55;46.42
45327;BME280;31062;49.678;24.560;2023-04-09T14:00:26;98789.78;;;13.52;47.17
45327;BME280;31062;49.678;24.560;2023-04-09T14:03:12;98807.81;;;13.51;49.58
45327;BME280;31062;49.678;24.560;2023-04-09T14:05:58;98371.09;;;10.57;50.61
45327;BME280;31062;49.678;24.560;2023-04-09T14:08:43;98777.31;;;13.43;50.87
45327;BME280;31062;49.678;24.560;2023-04-09T14:11:30;98763.31;;;13.24;51.50
45327;BME280;31062;49.678;24.560;2023-04-09T14:14:16;98753.66;;;13.15;51.60
45327;BME280;31062;49.678;24.560;2023-04-09T14:17:02;98632.63;;;12.24;52.32
45327;BME280;31062;49.678;24.560;2023-04-09T14:19:48;98741.69;;;12.95;51.89
45327;BME280;31062;49.678;24.560;2023-04-09T14:22:34;98763.72;;;13.11;52.31
45327;BME280;31062;49.678;24.560;2023-04-09T14:25:20;98734.34;;;12.90;52.20
45327;BME280;31062;49.678;24.560;2023-04-09T14:28:06;98762.19;;;13.00;51.44
45327;BME280;31062;49.678;24.560;2023-04-09T14:30:52;98743.88;;;12.97;52.15
45327;BME280;31062;49.678;24.560;2023-04-09T14:33:37;98753.84;;;13.00;52.94
45327;BME280;31062;49.678;24.560;2023-04-09T14:36:23;98751.22;;;13.02;51.21
45327;BME280;31062;49.678;24.560;2023-04-09T14:39:12;98752.69;;;13.03;50.72
45327;BME280;31062;49.678;24.560;2023-04-09T14:42:00;98591.22;;;11.92;51.08
45327;BME280;31062;49.678;24.560;2023-04-09T14:44:47;98584.19;;;11.91;50.40
45327;BME280;31062;49.678;24.560;2023-04-09T14:47:32;98744.66;;;13.07;51.46
45327;BME280;31062;49.678;24.560;2023-04-09T14:50:18;98728.03;;;12.90;51.91
45327;BME280;31062;49.678;24.560;2023-04-09T14:53:04;98741.88;;;13.07;50.98
45327;BME280;31062;49.678;24.560;2023-04-09T14:55:49;98737.59;;;13.06;51.40
45327;BME280;31062;49.678;24.560;2023-04-09T14:58:35;98721.47;;;12.95;51.69